Time;durP1;ratioP1;P1;durP2;ratioP2;P2;SDS_P1;SDS_P2;PMS_P1;PMS_P2;Temp;Humidity;BMP_temperature;BMP_pressure;BME280_temperature;BME280_humidity;BME280_pressure;Samples;Min_cycle;Max_cycle;Signal;HPM_P1;HPM_P2
2024/03/05 00:01:39;;;;;;;37.20;21.27;;;;;;;;;;5008079;28;20014;-69
2024/03/05 00:04:06;;;;;;;38.85;26.92;;;;;;;;;;5009031;28;20073;-68
2024/03/05 00:06:32;;;;;;;38.92;25.83;;;;;;;;;;4991075;28;20034;-68
2024/03/05 00:08:59;;;;;;;27.95;21.23;;;;;;;;;;5013162;28;20374;-68
2024/03/05 00:11:25;;;;;;;29.45;20.20;;;;;;;;;;5009771;28;20372;-68
2024/03/05 00:13:55;;;;;;;51.75;30.25;;;;;;;;;;5019229;28;20052;-68
2024/03/05 00:16:21;;;;;;;34.63;21.27;;;;;;;;;;5026439;28;20477;-69
2024/03/05 00:18:47;;;;;;;27.10;19.90;;;;;;;;;;5016537;28;20030;-69
2024/03/05 00:21:13;;;;;;;35.97;21.67;;;;;;;;;;5031382;28;20109;-66
2024/03/05 00:23:40;;;;;;;30.77;19.02;;;;;;;;;;5029875;28;20026;-68
2024/03/05 00:26:06;;;;;;;30.10;19.45;;;;;;;;;;5030238;28;20025;-68
2024/03/05 00:28:32;;;;;;;34.58;21.20;;;;;;;;;;5027554;28;20112;-69
2024/03/05 00:30:59;;;;;;;28.17;19.27;;;;;;;;;;5014328;28;20480;-70
2024/03/05 00:33:25;;;;;;;29.45;18.65;;;;;;;;;;5023350;28;20533;-74
2024/03/05 00:35:51;;;;;;;25.33;15.23;;;;;;;;;;5013307;28;20609;-75
2024/03/05 00:38:18;;;;;;;27.80;17.70;;;;;;;;;;5023723;28;20030;-67
2024/03/05 00:40:44;;;;;;;26.48;17.45;;;;;;;;;;5030221;28;20033;-75
2024/03/05 00:43:10;;;;;;;78.05;44.25;;;;;;;;;;5027708;28;20020;-66
2024/03/05 00:45:37;;;;;;;33.58;22.40;;;;;;;;;;5029350;28;20502;-76
2024/03/05 00:48:03;;;;;;;29.15;19.92;;;;;;;;;;5018229;28;20049;-72
2024/03/05 00:50:29;;;;;;;32.42;22.40;;;;;;;;;;5011128;28;20038;-71
2024/03/05 00:52:55;;;;;;;31.73;19.65;;;;;;;;;;5003826;28;20053;-75
2024/03/05 00:55:21;;;;;;;35.92;21.55;;;;;;;;;;5031467;28;20731;-80
2024/03/05 00:57:48;;;;;;;38.17;23.38;;;;;;;;;;5022427;28;20022;-72
2024/03/05 01:00:15;;;;;;;33.13;21.50;;;;;;;;;;5012755;28;20031;-80
2024/03/05 01:02:44;;;;;;;32.92;19.20;;;;;;;;;;5029981;28;20067;-76
2024/03/05 01:05:10;;;;;;;33.00;21.95;;;;;;;;;;5030413;28;20092;-79
2024/03/05 01:07:37;;;;;;;32.25;21.42;;;;;;;;;;5028820;28;20483;-74
2024/03/05 01:10:04;;;;;;;36.13;22.17;;;;;;;;;;5029663;28;20025;-76
2024/03/05 01:12:31;;;;;;;34.33;22.02;;;;;;;;;;5027537;28;20472;-79
2024/03/05 01:14:58;;;;;;;33.97;20.73;;;;;;;;;;5028009;28;20017;-83
2024/03/05 01:17:24;;;;;;;34.38;19.58;;;;;;;;;;5026012;28;20376;-82
2024/03/05 01:19:50;;;;;;;27.70;17.80;;;;;;;;;;5025874;28;20025;-68
2024/03/05 01:22:16;;;;;;;30.48;18.42;;;;;;;;;;5007162;28;20045;-79
2024/03/05 01:24:43;;;;;;;27.30;19.40;;;;;;;;;;5022847;28;20033;-69
2024/03/05 01:27:09;;;;;;;26.25;19.20;;;;;;;;;;5023089;28;20044;-78
2024/03/05 01:29:35;;;;;;;31.40;20.45;;;;;;;;;;5020199;28;20482;-80
2024/03/05 01:32:01;;;;;;;35.28;21.00;;;;;;;;;;5023378;28;20091;-75
2024/03/05 01:34:32;;;;;;;31.63;19.65;;;;;;;;;;5019825;28;20040;-81
2024/03/05 01:36:59;;;;;;;32.67;19.67;;;;;;;;;;5011655;28;20021;-78
2024/03/05 01:39:25;;;;;;;33.17;18.55;;;;;;;;;;5011595;28;20113;-80
2024/03/05 01:41:55;;;;;;;31.17;20.98;;;;;;;;;;5030221;28;20091;-78
2024/03/05 01:44:21;;;;;;;26.33;17.08;;;;;;;;;;5027086;28;20387;-72
2024/03/05 01:46:48;;;;;;;26.50;16.73;;;;;;;;;;5019917;28;20034;-77
2024/03/05 01:49:15;;;;;;;26.83;18.70;;;;;;;;;;5025771;28;20041;-81
2024/03/05 01:51:41;;;;;;;28.90;17.50;;;;;;;;;;5030436;28;20479;-71
2024/03/05 01:54:07;;;;;;;28.95;17.05;;;;;;;;;;5029680;28;20064;-69
2024/03/05 01:56:35;;;;;;;21.83;15.93;;;;;;;;;;5029651;28;20053;-81
2024/03/05 01:59:02;;;;;;;28.75;16.70;;;;;;;;;;5028115;28;20021;-70
2024/03/05 02:01:29;;;;;;;23.75;15.13;;;;;;;;;;5021113;28;20022;-68
2024/03/05 02:03:55;;;;;;;30.95;18.70;;;;;;;;;;5021930;28;20407;-79
2024/03/05 02:06:22;;;;;;;26.77;17.10;;;;;;;;;;5003892;28;20031;-72
2024/03/05 02:08:48;;;;;;;33.25;21.25;;;;;;;;;;5005854;28;20041;-76
2024/03/05 02:11:15;;;;;;;25.88;17.52;;;;;;;;;;5013896;28;20030;-74
2024/03/05 02:13:43;;;;;;;31.48;19.08;;;;;;;;;;5015139;28;20027;-68
2024/03/05 02:16:09;;;;;;;28.30;20.05;;;;;;;;;;5011906;28;20112;-75
2024/03/05 02:18:35;;;;;;;30.00;20.45;;;;;;;;;;5008485;28;20024;-76
2024/03/05 02:21:02;;;;;;;30.63;18.80;;;;;;;;;;5012972;28;20112;-73
2024/03/05 02:23:28;;;;;;;32.50;21.08;;;;;;;;;;5002440;28;20619;-80
2024/03/05 02:25:55;;;;;;;41.92;22.83;;;;;;;;;;5016764;28;20045;-79
2024/03/05 02:28:21;;;;;;;29.05;20.67;;;;;;;;;;5013166;28;20059;-69
2024/03/05 02:30:47;;;;;;;30.98;22.60;;;;;;;;;;5016194;28;20064;-81
2024/03/05 02:33:14;;;;;;;35.53;24.55;;;;;;;;;;5010330;28;20030;-82
2024/03/05 02:35:40;;;;;;;33.00;19.20;;;;;;;;;;5010524;28;20046;-82
2024/03/05 02:38:06;;;;;;;33.75;24.65;;;;;;;;;;5010192;28;20056;-81
2024/03/05 02:40:33;;;;;;;28.85;19.25;;;;;;;;;;5010536;28;20030;-80
2024/03/05 02:42:59;;;;;;;37.30;21.77;;;;;;;;;;5010168;28;20162;-69
2024/03/05 02:45:26;;;;;;;31.23;23.02;;;;;;;;;;5009497;28;20128;-69
2024/03/05 02:47:52;;;;;;;28.85;16.58;;;;;;;;;;5010315;28;20065;-71
2024/03/05 02:50:19;;;;;;;23.80;16.35;;;;;;;;;;5009971;28;20136;-69
2024/03/05 02:52:45;;;;;;;27.85;16.67;;;;;;;;;;5010030;28;20049;-69
2024/03/05 02:55:12;;;;;;;25.45;16.38;;;;;;;;;;5010063;28;20029;-68
2024/03/05 02:57:43;;;;;;;29.88;18.40;;;;;;;;;;5009822;28;20333;-70
2024/03/05 03:00:13;;;;;;;31.90;18.83;;;;;;;;;;5009536;28;20836;-68
2024/03/05 03:02:39;;;;;;;31.60;16.40;;;;;;;;;;5009602;28;20049;-69
2024/03/05 03:05:05;;;;;;;29.83;16.42;;;205.70;2252.80;;;;;;4991673;28;20053;-74
2024/03/05 03:07:32;;;;;;;26.52;16.70;;;;;;;;;;5009553;28;20457;-69
2024/03/05 03:09:58;;;;;;;30.33;18.10;;;230.40;2252.80;;;;;;5009701;28;20053;-73
2024/03/05 03:12:25;;;;;;;28.50;17.23;;;;;;;;;;5009477;28;20486;-72
2024/03/05 03:14:52;;;;;;;28.20;18.65;;;;;;;;;;5009288;28;20037;-71
2024/03/05 03:17:18;;;;;;;28.50;18.98;;;;;;;;;;5009665;28;20436;-68
2024/03/05 03:19:44;;;;;;;30.42;17.40;;;;;;;;;;5009306;28;20034;-72
2024/03/05 03:22:11;;;;;;;22.00;15.35;;;;;;;;;;4996868;28;20037;-71
2024/03/05 03:24:37;;;;;;;28.10;16.00;;;;;;;;;;5009123;28;20034;-69
2024/03/05 03:27:03;;;;;;;27.75;16.92;;;205.60;2252.80;;;;;;5009145;28;20077;-70
2024/03/05 03:29:29;;;;;;;25.73;15.85;;;205.50;2252.80;;;;;;4997896;28;20033;-69
2024/03/05 03:31:56;;;;;;;24.42;18.30;;;205.40;2252.80;;;;;;5009209;28;20487;-69
2024/03/05 03:34:21;;;;;;;27.58;18.27;;;205.40;2252.80;;;;;;5009315;28;20896;-73
2024/03/05 03:36:47;;;;;;;29.25;19.92;;;205.30;2252.80;;;;;;5009410;28;20026;-70
2024/03/05 03:39:23;;;;;;;27.15;16.40;;;205.30;2252.80;;;;;;5008652;28;20109;-68
2024/03/05 03:41:53;;;;;;;29.33;18.60;;;205.40;2252.80;;;;;;5009613;28;20025;-68
2024/03/05 03:44:20;;;;;;;28.83;18.45;;;205.40;2252.80;;;;;;5009389;28;20034;-69
2024/03/05 03:46:46;;;;;;;29.02;17.42;;;205.50;2252.80;;;;;;5008908;28;20160;-70
2024/03/05 03:49:14;;;;;;;26.08;16.33;;;205.50;2252.80;;;;;;5008538;28;20495;-70
2024/03/05 03:51:40;;;;;;;24.13;15.80;;;205.50;2252.80;;;;;;5009218;28;20034;-70
2024/03/05 03:54:06;;;;;;;30.13;16.60;;;205.30;2252.80;;;;;;5008000;28;20033;-68
2024/03/05 03:56:34;;;;;;;24.17;16.45;;;205.10;2252.80;;;;;;5008902;28;20025;-70
2024/03/05 03:58:59;;;;;;;42.00;27.05;;;205.00;2252.80;;;;;;5008601;28;20026;-74
2024/03/05 04:01:25;;;;;;;31.17;20.13;;;205.10;2252.80;;;;;;5008833;28;20026;-68
2024/03/05 04:03:51;;;;;;;34.92;20.80;;;205.00;2252.80;;;;;;5008759;28;20022;-69
2024/03/05 04:06:18;;;;;;;41.22;25.73;;;205.10;2252.80;;;;;;5009476;28;20029;-70
2024/03/05 04:08:44;;;;;;;34.15;20.98;;;205.10;2252.80;;;;;;5008493;28;20479;-69
2024/03/05 04:11:09;;;;;;;66.70;31.02;;;205.10;2252.80;;;;;;5009229;28;20073;-70
2024/03/05 04:13:38;;;;;;;48.30;27.02;;;205.10;2252.80;;;;;;5008793;28;20427;-70
2024/03/05 04:16:05;;;;;;;35.20;23.13;;;205.10;2252.80;;;;;;5008684;28;20479;-68
2024/03/05 04:18:31;;;;;;;41.05;24.20;;;205.30;2252.80;;;;;;5009126;28;20053;-68
2024/03/05 04:20:56;;;;;;;37.38;21.38;;;205.20;2252.80;;;;;;5008347;28;20440;-68
2024/03/05 04:23:22;;;;;;;33.92;21.60;;;205.30;2252.80;;;;;;5008440;28;20161;-69
2024/03/05 04:25:49;;;;;;;38.00;21.75;;;205.20;2252.80;;;;;;5008629;28;20095;-66
2024/03/05 04:28:14;;;;;;;38.60;22.38;;;205.20;2252.80;;;;;;5008852;28;20034;-66
2024/03/05 04:30:48;;;;;;;31.23;16.73;;;205.20;2252.80;;;;;;5008620;28;20037;-68
2024/03/05 04:33:16;;;;;;;;;;;205.00;2252.80;;;;;;5008819;28;20460;-71
2024/03/05 04:35:43;;;;;;;25.70;17.95;;;;;;;;;;5008332;28;19967;-67
2024/03/05 04:38:09;;;;;;;30.25;18.23;;;;;;;;;;5009024;28;20025;-67
2024/03/05 04:40:35;;;;;;;33.55;19.25;;;;;;;;;;5008501;28;20620;-67
2024/03/05 04:43:01;;;;;;;27.65;17.20;;;;;;;;;;5008570;28;20025;-68
2024/03/05 04:45:28;;;;;;;28.10;17.13;;;;;;;;;;5008270;28;20050;-68
2024/03/05 04:47:55;;;;;;;31.85;19.92;;;;;;;;;;5006733;28;20104;-68
2024/03/05 04:50:21;;;;;;;34.28;17.17;;;;;;;;;;5008314;28;20355;-69
2024/03/05 04:52:47;;;;;;;26.50;17.70;;;;;;;;;;5008723;28;20032;-68
2024/03/05 04:55:14;;;;;;;34.75;21.23;;;;;;;;;;5008320;28;20026;-68
2024/03/05 04:57:43;;;;;;;32.00;20.20;;;;;;;;;;5008555;28;20538;-75
2024/03/05 05:00:23;;;;;;;31.95;18.27;;;;;;;;;;5008413;28;20084;-73
2024/03/05 05:02:50;;;;;;;29.13;17.63;;;;;;;;;;4996178;28;20439;-69
2024/03/05 05:05:17;;;;;;;32.42;18.33;;;;;;;;;;5010461;28;20065;-72
2024/03/05 05:07:44;;;;;;;27.10;17.75;;;;;;;;;;5011995;28;20080;-72
2024/03/05 05:10:10;;;;;;;33.33;19.67;;;;;;;;;;5011888;28;20087;-74
2024/03/05 05:12:40;;;;;;;28.77;19.88;;;;;;;;;;5011816;28;20022;-68
2024/03/05 05:15:08;;;;;;;33.78;20.67;;;;;;;;;;5011572;28;20029;-68
2024/03/05 05:17:35;;;;;;;36.78;20.40;;;;;;;;;;5011686;28;20036;-67
2024/03/05 05:20:03;;;;;;;31.85;20.23;;;;;;;;;;5011469;28;20039;-68
2024/03/05 05:22:29;;;;;;;32.28;20.05;;;;;;;;;;5011808;28;20067;-71
2024/03/05 05:24:56;;;;;;;34.72;21.80;;;;;;;;;;5011169;28;20133;-68
2024/03/05 05:27:22;;;;;;;29.23;21.45;;;;;;;;;;5011524;28;20057;-68
2024/03/05 05:29:48;;;;;;;30.60;19.17;;;;;;;;;;5011847;28;20029;-70
2024/03/05 05:32:14;;;;;;;31.20;21.67;;;;;;;;;;5011623;28;20033;-79
2024/03/05 05:34:41;;;;;;;34.75;21.83;;;;;;;;;;5012819;28;20029;-69
2024/03/05 05:37:07;;;;;;;37.90;22.75;;;;;;;;;;5020067;28;20029;-78
2024/03/05 05:39:33;;;;;;;35.70;23.10;;;;;;;;;;5010865;28;20165;-78
2024/03/05 05:41:59;;;;;;;36.92;25.67;;;;;;;;;;5011601;28;20022;-80
2024/03/05 05:44:25;;;;;;;35.33;25.05;;;;;;;;;;5011300;28;20037;-78
2024/03/05 05:46:51;;;;;;;42.30;27.42;;;;;;;;;;5011298;28;20222;-68
2024/03/05 05:49:20;;;;;;;36.90;25.48;;;;;;;;;;4995271;28;20038;-71
2024/03/05 05:51:47;;;;;;;37.70;22.88;;;;;;;;;;5014505;28;20022;-73
2024/03/05 05:54:13;;;;;;;35.88;25.30;;;;;;;;;;5013866;28;20021;-72
2024/03/05 05:56:39;;;;;;;38.25;23.45;;;;;;;;;;5010973;28;20033;-80
2024/03/05 05:59:08;;;;;;;36.72;25.73;;;;;;;;;;5010813;28;20063;-68
2024/03/05 06:01:37;;;;;;;36.58;23.77;;;;;;;;;;5010738;28;20053;-68
2024/03/05 06:04:06;;;;;;;34.55;24.23;;;;;;;;;;5010643;28;20403;-68
2024/03/05 06:06:33;;;;;;;49.45;31.75;;;;;;;;;;5010590;28;20448;-68
2024/03/05 06:08:59;;;;;;;36.95;24.20;;;;;;;;;;5010671;28;20030;-68
2024/03/05 06:11:25;;;;;;;37.42;26.38;;;;;;;;;;5010967;28;20076;-68
2024/03/05 06:13:51;;;;;;;87.20;56.20;;;;;;;;;;5010880;28;20029;-68
2024/03/05 06:16:19;;;;;;;49.70;32.70;;;;;;;;;;5010075;28;20417;-81
2024/03/05 06:18:45;;;;;;;43.63;29.73;;;;;;;;;;5010797;28;20150;-82
2024/03/05 06:21:11;;;;;;;53.22;36.80;;;;;;;;;;5006926;28;20542;-70
2024/03/05 06:23:37;;;;;;;47.03;32.35;;;;;;;;;;4997246;28;20038;-78
2024/03/05 06:26:03;;;;;;;68.53;46.42;;;;;;;;;;5000288;28;20128;-69
2024/03/05 06:28:29;;;;;;;53.15;31.95;;;;;;;;;;5021261;28;20017;-67
2024/03/05 06:30:56;;;;;;;57.25;36.60;;;;;;;;;;5019296;28;20040;-68
2024/03/05 06:33:22;;;;;;;44.67;31.15;;;;;;;;;;5018689;28;20025;-68
2024/03/05 06:35:48;;;;;;;47.15;32.35;;;;;;;;;;5021433;28;20026;-68
2024/03/05 06:38:15;;;;;;;63.42;40.63;;;;;;;;;;5003342;28;20448;-70
2024/03/05 06:40:41;;;;;;;45.17;29.27;;;;;;;;;;5029515;28;20021;-68
2024/03/05 06:43:15;;;;;;;56.17;39.85;;;;;;;;;;5003480;28;20376;-68
2024/03/05 06:45:42;;;;;;;43.15;32.38;;;;;;;;;;5028923;28;20037;-75
2024/03/05 06:48:09;;;;;;;256.10;164.90;;;;;;;;;;5016844;28;20017;-82
2024/03/05 06:51:01;;;;;;;518.15;347.23;;;384.70;2329.60;;;;;;5019035;28;20041;-80
2024/03/05 06:58:58;;;;;;;54.22;45.38;;;;;;;;;;5027902;28;20041;-69
2024/03/05 07:01:27;;;;;;;44.75;33.50;;;435.30;2201.60;;;;;;5004132;28;20029;-69
2024/03/05 07:03:53;;;;;;;37.35;28.80;;;435.50;2176.00;;;;;;5002110;28;20053;-68
2024/03/05 07:06:20;;;;;;;38.13;29.15;;;435.60;2150.40;;;;;;5017744;28;20060;-68
2024/03/05 07:08:51;;;;;;;47.17;36.08;;;435.80;2150.40;;;;;;5018560;28;20022;-72
2024/03/05 07:11:18;;;;;;;44.03;36.25;;;461.20;2073.60;;;;;;5018370;28;20029;-70
2024/03/05 07:13:48;;;;;;;42.88;36.60;;;461.10;2073.60;;;;;;5010988;28;20105;-69
2024/03/05 07:16:15;;;;;;;39.88;34.22;;;;;;;;;;5020228;28;20036;-70
2024/03/05 07:18:47;;;;;;;42.78;33.95;;;487.00;1971.20;;;;;;5011446;28;20025;-68
2024/03/05 07:21:13;;;;;;;34.17;30.30;;;486.80;1971.20;;;;;;5011398;28;20488;-69
2024/03/05 07:23:44;;;;;;;36.53;28.90;;;;;;;;;;5009921;28;20055;-68
2024/03/05 07:26:12;;;;;;;36.63;30.20;;;;;;;;;;5028374;28;20640;-70
2024/03/05 07:28:38;;;;;;;31.98;27.63;;;512.40;1868.80;;;;;;5014325;28;20030;-69
2024/03/05 07:31:04;;;;;;;35.80;29.33;;;;;;;;;;5011322;28;20030;-68
2024/03/05 07:33:31;;;;;;;40.03;31.20;;;;;;;;;;5008936;28;20030;-68
2024/03/05 07:35:56;;;;;;;32.05;28.58;;;512.80;1868.80;;;;;;5009353;28;20076;-71
2024/03/05 07:38:22;;;;;;;35.83;29.27;;;512.30;1868.80;;;;;;5009390;28;20030;-69
2024/03/05 07:40:49;;;;;;;34.75;26.48;;;;;;;;;;5003812;28;20100;-71
2024/03/05 07:43:15;;;;;;;34.38;30.73;;;;;;;;;;5011620;28;20492;-68
2024/03/05 07:45:42;;;;;;;46.28;40.67;;;;;;;;;;5010171;28;20041;-72
2024/03/05 07:48:08;;;;;;;49.78;41.55;;;563.60;1792.00;;;;;;4991534;28;20113;-87
2024/03/05 07:50:34;;;;;;;47.55;41.50;;;588.80;1766.40;;;;;;5019184;28;20076;-86
2024/03/05 07:52:59;;;;;;;49.30;43.25;;;589.00;1740.80;;;;;;5007612;28;20026;-87
2024/03/05 07:55:26;;;;;;;50.03;41.70;;;589.20;1689.60;;;;;;4999512;28;20128;-87
2024/03/05 07:57:53;;;;;;;37.47;33.42;;;589.70;1689.60;;;;;;4992511;28;20112;-88
2024/03/05 08:00:20;;;;;;;33.90;29.13;;;;;;;;;;4992820;28;20030;-88
2024/03/05 08:02:47;;;;;;;39.25;34.88;;;;;;;;;;4995594;28;20194;-87
2024/03/05 08:05:21;;;;;;;44.40;36.00;;;;;;;;;;4992318;28;20549;-87
2024/03/05 08:07:56;;;;;;;;;;;640.00;1587.20;;;;;;4992967;28;20014;-86
2024/03/05 08:10:23;;;;;;;35.33;29.17;;;614.90;1612.80;;;;;;4992413;28;20416;-85
2024/03/05 08:12:51;;;;;;;40.38;33.08;;;614.50;1638.40;;;;;;4992120;28;20098;-86
2024/03/05 08:15:18;;;;;;;31.25;27.90;;;614.90;1612.80;;;;;;4991934;28;20491;-86
2024/03/05 08:17:48;;;;;;;36.88;32.85;;;615.30;1587.20;;;;;;4991541;28;20104;-86
2024/03/05 08:20:19;;;;;;;56.05;45.67;;;640.40;1561.60;;;;;;4991534;28;20040;-88
2024/03/05 08:22:46;;;;;;;37.38;33.22;;;640.90;1536.00;;;;;;4994651;28;20053;-82
2024/03/05 08:25:16;;;;;;;37.50;30.38;;;666.00;1536.00;;;;;;4996057;28;20041;-89
2024/03/05 08:27:59;;;;;;;30.50;27.35;;;665.90;1536.00;;;;;;4992028;28;20045;-83
2024/03/05 08:30:29;;;;;;;33.85;29.65;;;665.90;1510.40;;;;;;5003848;28;20034;-88
2024/03/05 08:32:56;;;;;;;36.72;33.13;;;640.40;1536.00;;;;;;5000785;28;20038;-89
2024/03/05 08:35:22;;;;;;;34.55;30.85;;;640.20;1536.00;;;;;;5007990;28;20081;-88
2024/03/05 08:37:49;;;;;;;34.85;30.90;;;640.10;1536.00;;;;;;4999189;28;20534;-91
2024/03/05 08:40:16;;;;;;;31.30;28.05;;;615.00;1561.60;;;;;;5005015;28;20520;-89
2024/03/05 08:42:47;;;;;;;31.77;28.05;;;615.00;1561.60;;;;;;5011334;28;20010;-89
2024/03/05 08:45:15;;;;;;;34.20;28.90;;;615.10;1561.60;;;;;;5032433;28;20014;-90
2024/03/05 08:47:46;;;;;;;37.95;30.02;;;665.60;1536.00;;;;;;5024435;28;20022;-90
2024/03/05 08:50:12;;;;;;;43.60;37.90;;;666.40;1484.80;;;;;;4993432;28;20121;-89
2024/03/05 08:52:40;;;;;;;48.65;39.20;;;691.30;1459.20;;;;;;5021181;28;20046;-90
2024/03/05 08:55:08;;;;;;;94.57;80.43;;;691.50;1433.60;;;;;;4993673;28;20037;-90
2024/03/05 08:57:43;;;;;;;35.50;30.48;;;691.60;1408.00;;;;;;4982410;28;20029;-89
2024/03/05 09:00:17;;;;;;;33.55;30.25;;;666.50;1459.20;;;;;;4981855;28;20065;-82
2024/03/05 09:02:44;;;;;;;78.00;70.15;;;666.10;1459.20;;;;;;5014246;28;20073;-88
2024/03/05 09:05:10;;;;;;;31.48;28.45;;;665.90;1484.80;;;;;;5016271;28;20070;-88
2024/03/05 09:07:40;;;;;;;31.42;28.23;;;640.90;1459.20;;;;;;5009691;28;20044;-88
2024/03/05 09:10:08;;;;;;;41.20;36.83;;;640.60;1484.80;;;;;;5041184;28;20021;-84
2024/03/05 09:12:34;;;;;;;39.55;34.70;;;640.00;1510.40;;;;;;5010461;28;20014;-89
2024/03/05 09:15:00;;;;;;;36.42;30.77;;;615.20;1536.00;;;;;;5015519;28;20048;-88
2024/03/05 09:17:26;;;;;;;41.40;35.75;;;614.60;1561.60;;;;;;5010335;28;20030;-86
2024/03/05 09:19:52;;;;;;;36.20;32.30;;;614.70;1587.20;;;;;;4995882;28;20508;-88
2024/03/05 09:22:19;;;;;;;34.33;30.77;;;614.40;1587.20;;;;;;4988828;28;20033;-87
2024/03/05 09:24:45;;;;;;;34.75;30.60;;;589.40;1612.80;;;;;;4984832;28;20045;-91
2024/03/05 09:27:11;;;;;;;34.67;30.73;;;589.00;1638.40;;;;;;4994253;28;20047;-90
2024/03/05 09:29:38;;;;;;;35.90;31.10;;;563.60;1689.60;;;;;;4981384;28;20038;-89
2024/03/05 09:32:08;;;;;;;33.90;30.30;;;563.30;1715.20;;;;;;5006709;28;20017;-88
2024/03/05 09:34:34;;;;;;;32.33;28.50;;;538.20;1715.20;;;;;;5022240;28;20117;-87
2024/03/05 09:37:03;;;;;;;33.90;26.60;;;512.90;1740.80;;;;;;5006806;28;20033;-90
2024/03/05 09:39:28;;;;;;;30.88;26.40;;;512.30;1792.00;;;;;;4999442;28;20048;-91
2024/03/05 09:41:54;;;;;;;34.35;25.92;;;512.10;1792.00;;;;;;5004463;28;20034;-91
2024/03/05 09:44:20;;;;;;;30.70;25.63;;;512.00;1817.60;;;;;;4986711;28;20048;-86
2024/03/05 09:46:48;;;;;;;35.00;26.88;;;487.10;1817.60;;;;;;5006363;28;20022;-88
2024/03/05 09:49:16;;;;;;;32.55;27.30;;;487.10;1843.20;;;;;;5009940;28;20034;-89
2024/03/05 09:51:42;;;;;;;39.85;34.53;;;487.00;1843.20;;;;;;5004353;28;20494;-88
2024/03/05 09:54:12;;;;;;;32.17;25.45;;;;;;;;;;5010274;28;20037;-88
2024/03/05 09:56:46;;;;;;;33.80;29.23;;;486.90;1843.20;;;;;;5013875;28;20047;-88
2024/03/05 09:59:16;;;;;;;34.67;30.50;;;486.80;1868.80;;;;;;5012304;28;20021;-90
2024/03/05 10:01:44;;;;;;;33.35;25.27;;;;;;;;;;5001210;28;20038;-88
2024/03/05 10:04:13;;;;;;;36.47;27.15;;;;;;;;;;5009247;28;20037;-89
2024/03/05 10:06:39;;;;;;;31.35;24.98;;;;;;;;;;5012295;28;20028;-88
2024/03/05 10:09:08;;;;;;;29.67;24.48;;;;;;;;;;4997878;28;20120;-89
2024/03/05 10:11:35;;;;;;;57.03;47.95;;;;;;;;;;4986153;28;20022;-87
2024/03/05 10:14:08;;;;;;;34.70;29.13;;;;;;;;;;4990763;28;20425;-88
2024/03/05 10:16:35;;;;;;;32.70;23.77;;;;;;;;;;4989323;28;20026;-88
2024/03/05 10:19:27;;;;;;;30.00;22.60;;;;;;;;;;5008239;28;20029;-87
2024/03/05 10:21:53;;;;;;;38.28;31.88;;;;;;;;;;5007649;28;20110;-88
2024/03/05 10:24:34;;;;;;;29.13;22.17;;;;;;;;;;4994543;28;20046;-90
2024/03/05 10:27:01;;;;;;;25.13;21.10;;;;;;;;;;4994337;28;20057;-89
2024/03/05 10:29:34;;;;;;;32.75;25.63;;;;;;;;;;4994518;28;20026;-92
2024/03/05 10:32:04;;;;;;;29.30;23.42;;;;;;;;;;4996456;28;20026;-92
2024/03/05 10:34:31;;;;;;;30.95;22.88;;;;;;;;;;4994535;28;20484;-87
2024/03/05 10:37:04;;;;;;;50.85;39.08;;;;;;;;;;4994097;28;20022;-89
2024/03/05 10:39:30;;;;;;;39.42;26.45;;;;;;;;;;4995197;28;20084;-87
2024/03/05 10:41:59;;;;;;;30.40;25.40;;;;;;;;;;4994026;28;20029;-88
2024/03/05 10:44:26;;;;;;;28.73;22.83;;;;;;;;;;4993893;28;20045;-79
2024/03/05 10:46:53;;;;;;;33.78;23.60;;;;;;;;;;4993308;28;20104;-87
2024/03/05 10:49:21;;;;;;;34.15;24.60;;;;;;;;;;4993630;28;20042;-89
2024/03/05 10:51:48;;;;;;;33.95;24.73;;;;;;;;;;4994410;28;20041;-89
2024/03/05 10:54:14;;;;;;;28.77;23.38;;;;;;;;;;4990736;28;20492;-75
2024/03/05 10:56:40;;;;;;;33.38;25.08;;;;;;;;;;5000576;28;20120;-71
2024/03/05 11:01:43;;;;;;;45.95;34.92;;;;;;;;;;5028512;28;20037;-73
2024/03/05 11:04:12;;;;;;;36.53;27.80;;;;;;;;;;5010717;28;20034;-72
2024/03/05 11:06:42;;;;;;;48.13;37.45;;;;;;;;;;5009698;28;20026;-72
2024/03/05 11:09:15;;;;;;;59.95;44.97;;;;;;;;;;5009864;28;20026;-75
2024/03/05 11:11:45;;;;;;;32.72;28.20;;;;;;;;;;5009634;28;20025;-72
2024/03/05 11:14:12;;;;;;;30.02;22.65;;;;;;;;;;5009916;28;20125;-73
2024/03/05 11:16:38;;;;;;;31.90;25.27;;;;;;;;;;5009589;28;20022;-72
2024/03/05 11:19:05;;;;;;;30.55;23.52;;;;;;;;;;5009484;28;20026;-73
2024/03/05 11:21:35;;;;;;;27.77;23.98;;;;;;;;;;5009532;28;20377;-72
2024/03/05 11:24:02;;;;;;;31.30;22.63;;;;;;;;;;5009460;28;20022;-77
2024/03/05 11:26:32;;;;;;;33.42;24.35;;;;;;;;;;5009230;28;20049;-73
2024/03/05 11:29:04;;;;;;;30.67;24.88;;;;;;;;;;5009730;28;20521;-73
2024/03/05 11:31:30;;;;;;;37.43;26.17;;;;;;;;;;5009445;28;20418;-73
2024/03/05 11:34:03;;;;;;;26.15;23.15;;;;;;;;;;5009196;28;20105;-73
2024/03/05 11:36:36;;;;;;;27.83;21.57;;;;;;;;;;5013148;28;20026;-73
2024/03/05 11:39:15;;;;;;;41.75;28.42;;;;;;;;;;5018227;28;20037;-73
2024/03/05 11:41:42;;;;;;;26.23;22.90;;;;;;;;;;5002306;28;20095;-73
2024/03/05 11:44:10;;;;;;;33.28;21.77;;;;;;;;;;5008941;28;20365;-73
2024/03/05 11:46:46;;;;;;;32.22;24.00;;;;;;;;;;5009060;28;20026;-72
2024/03/05 11:49:13;;;;;;;32.42;26.55;;;;;;;;;;5008813;28;20033;-74
2024/03/05 11:51:40;;;;;;;30.65;24.65;;;;;;;;;;5009497;28;20065;-73
2024/03/05 11:54:08;;;;;;;56.13;42.70;;;;;;;;;;4997116;28;20030;-73
2024/03/05 11:56:35;;;;;;;28.50;22.75;;;;;;;;;;5001906;28;20014;-73
2024/03/05 11:59:02;;;;;;;39.90;29.52;;;;;;;;;;5009304;28;20022;-73
2024/03/05 12:01:30;;;;;;;36.60;27.13;;;;;;;;;;5009351;28;20033;-72
2024/03/05 12:04:07;;;;;;;28.45;21.20;;;;;;;;;;5008769;28;20380;-72
2024/03/05 12:06:36;;;;;;;26.60;19.58;;;;;;;;;;4996497;28;20388;-73
2024/03/05 12:09:18;;;;;;;42.22;26.65;;;;;;;;;;5008353;28;20029;-72
2024/03/05 12:12:23;;;;;;;30.08;21.55;;;;;;;;;;5007827;28;20089;-72
2024/03/05 12:14:49;;;;;;;26.92;20.65;;;;;;;;;;4967923;28;20061;-72
2024/03/05 12:17:18;;;;;;;22.88;19.85;;;;;;;;;;4970462;28;20465;-72
2024/03/05 12:19:46;;;;;;;26.08;21.63;;;;;;;;;;4969761;28;20039;-72
2024/03/05 12:22:12;;;;;;;37.58;29.90;;;;;;;;;;4970235;28;20054;-73
2024/03/05 12:24:38;;;;;;;29.95;23.70;;;;;;;;;;4970242;28;20035;-78
2024/03/05 12:27:06;;;;;;;28.73;23.10;;;;;;;;;;4969790;28;20042;-72
2024/03/05 12:29:37;;;;;;;30.60;24.23;;;;;;;;;;4970453;28;20070;-72
2024/03/05 12:32:12;;;;;;;33.38;23.50;;;;;;;;;;4970129;28;20026;-73
2024/03/05 12:34:49;;;;;;;27.85;22.27;;;;;;;;;;4970350;28;20829;-76
2024/03/05 12:37:19;;;;;;;29.60;20.88;;;;;;;;;;4970509;28;20031;-74
2024/03/05 12:39:45;;;;;;;35.40;24.13;;;;;;;;;;4970370;28;20070;-73
2024/03/05 12:42:13;;;;;;;41.35;27.60;;;;;;;;;;4971419;28;20041;-73
2024/03/05 12:44:40;;;;;;;32.28;26.85;;;;;;;;;;4974494;28;20106;-73
2024/03/05 12:47:09;;;;;;;38.60;27.45;;;;;;;;;;5011617;28;20109;-74
2024/03/05 12:49:45;;;;;;;34.33;26.75;;;;;;;;;;4994633;28;20408;-76
2024/03/05 12:52:12;;;;;;;27.02;23.60;;;;;;;;;;5011786;28;20089;-73
2024/03/05 12:54:38;;;;;;;26.13;20.50;;;;;;;;;;5011770;28;20022;-72
2024/03/05 12:57:04;;;;;;;33.42;21.75;;;;;;;;;;5011915;28;20030;-72
2024/03/05 12:59:31;;;;;;;29.23;21.52;;;;;;;;;;5011836;28;20029;-72
2024/03/05 13:01:58;;;;;;;28.48;22.52;;;;;;;;;;5011914;28;20416;-72
2024/03/05 13:04:25;;;;;;;31.23;24.65;;;;;;;;;;5011604;28;20033;-72
2024/03/05 13:06:51;;;;;;;31.00;25.20;;;;;;;;;;5011157;28;20041;-73
2024/03/05 13:09:20;;;;;;;35.25;25.05;;;;;;;;;;5011909;28;20032;-72
2024/03/05 13:11:46;;;;;;;32.33;24.23;;;;;;;;;;5011593;28;20402;-73
2024/03/05 13:14:13;;;;;;;30.30;24.85;;;;;;;;;;5012606;28;20299;-87
2024/03/05 13:16:42;;;;;;;36.83;27.77;;;;;;;;;;5011608;28;20467;-73
2024/03/05 13:19:10;;;;;;;31.35;22.45;;;;;;;;;;5011439;28;20021;-72
2024/03/05 13:21:37;;;;;;;30.50;23.20;;;;;;;;;;5011571;28;20021;-72
2024/03/05 13:24:04;;;;;;;29.95;22.67;;;;;;;;;;5011466;28;20571;-73
2024/03/05 13:26:33;;;;;;;45.55;32.25;;;;;;;;;;5010265;28;20058;-73
2024/03/05 13:29:00;;;;;;;53.30;35.45;;;;;;;;;;5011749;28;20072;-73
2024/03/05 13:31:26;;;;;;;33.20;21.48;;;;;;;;;;5011504;28;20109;-73
2024/03/05 13:33:53;;;;;;;38.75;28.52;;;;;;;;;;5016010;28;20083;-74
2024/03/05 13:36:19;;;;;;;37.55;30.25;;;;;;;;;;5011738;28;20022;-73
2024/03/05 13:38:47;;;;;;;37.58;27.85;;;;;;;;;;5000602;28;20479;-77
2024/03/05 13:41:14;;;;;;;38.00;29.95;;;;;;;;;;5011524;28;20018;-73
2024/03/05 13:43:40;;;;;;;35.55;28.75;;;;;;;;;;4999858;28;20019;-72
2024/03/05 13:46:07;;;;;;;45.72;33.88;;;;;;;;;;5001315;28;20041;-73